createdAt,value
2022-11-20T00:04:43.079Z,10.97
2022-11-20T00:09:46.134Z,11.37
2022-11-20T00:14:49.103Z,10.98
2022-11-20T00:19:51.633Z,11.37
2022-11-20T00:24:54.184Z,11.47
2022-11-20T00:29:56.979Z,12.63
2022-11-20T00:34:59.560Z,12.77
2022-11-20T00:40:02.143Z,12.93
2022-11-20T00:45:06.064Z,11.80
2022-11-20T00:50:09.070Z,12.13
2022-11-20T00:55:11.694Z,12.07
2022-11-20T01:00:16.365Z,11.63
2022-11-20T01:05:18.880Z,11.83
2022-11-20T01:10:21.456Z,12.60
2022-11-20T01:15:23.981Z,10.77
2022-11-20T01:20:26.501Z,10.53
2022-11-20T01:25:29.794Z,12.20
2022-11-20T01:30:32.386Z,10.07
2022-11-20T01:35:34.920Z,10.63
2022-11-20T01:40:37.442Z,10.57
2022-11-20T01:45:57.305Z,10.17
2022-11-20T01:51:01.984Z,10.18
2022-11-20T01:56:09.575Z,10.47
2022-11-20T02:01:13.831Z,10.67
2022-11-20T02:06:23.992Z,11.07
2022-11-20T02:11:26.524Z,10.47
2022-11-20T02:16:33.389Z,10.13
2022-11-20T02:22:00.395Z,10.93
2022-11-20T02:27:12.014Z,10.53
2022-11-20T02:32:32.952Z,10.65
2022-11-20T02:37:39.863Z,9.67
2022-11-20T02:42:42.511Z,10.10
2022-11-20T02:47:45.173Z,11.53
2022-11-20T02:52:47.924Z,10.40
2022-11-20T02:57:50.506Z,8.47
2022-11-20T03:02:53.179Z,9.63
2022-11-20T03:07:55.708Z,9.10
2022-11-20T03:12:58.407Z,9.80
2022-11-20T03:18:00.945Z,9.83
2022-11-20T03:23:03.851Z,9.00
2022-11-20T03:28:06.537Z,9.60
2022-11-20T03:33:09.334Z,8.55
2022-11-20T03:38:11.881Z,8.20
2022-11-20T03:43:14.408Z,9.53
2022-11-20T03:48:16.914Z,9.07
2022-11-20T03:53:19.664Z,8.50
2022-11-20T03:58:22.174Z,9.47
2022-11-20T04:03:24.787Z,8.40
2022-11-20T04:08:27.411Z,9.47
2022-11-20T04:13:29.972Z,9.87
2022-11-20T04:18:33.818Z,9.70
2022-11-20T04:23:36.425Z,9.27
2022-11-20T04:28:40.051Z,8.60
2022-11-20T04:33:43.918Z,8.93
2022-11-20T04:38:47.042Z,8.77
2022-11-20T04:43:51.551Z,9.07
2022-11-20T04:48:54.564Z,8.60
2022-11-20T04:53:57.759Z,9.63
2022-11-20T04:59:03.773Z,10.10
2022-11-20T05:04:06.931Z,9.60
2022-11-20T05:09:09.544Z,9.23
2022-11-20T05:14:12.110Z,9.80
2022-11-20T05:19:14.838Z,8.88
2022-11-20T05:24:17.372Z,10.30
2022-11-20T05:29:20.460Z,10.07
2022-11-20T05:34:23.604Z,10.18
2022-11-20T05:39:26.094Z,9.93
2022-11-20T05:44:28.646Z,11.00
2022-11-20T05:49:31.179Z,10.50
2022-11-20T05:54:33.817Z,10.33
2022-11-20T05:59:36.291Z,10.73
2022-11-20T06:04:38.858Z,11.13
2022-11-20T06:09:41.640Z,10.77
2022-11-20T06:14:44.362Z,10.83
2022-11-20T06:19:47.041Z,12.27
2022-11-20T06:24:49.717Z,11.60
2022-11-20T06:29:52.203Z,11.35
2022-11-20T06:34:54.855Z,11.25
2022-11-20T06:39:57.411Z,11.57
2022-11-20T06:44:59.989Z,11.55
2022-11-20T06:50:02.679Z,13.02
2022-11-20T06:55:06.438Z,14.02
2022-11-20T07:00:09.593Z,14.52
2022-11-20T07:05:12.380Z,12.50
2022-11-20T07:10:15.045Z,12.70
2022-11-20T07:15:18.338Z,14.75
2022-11-20T07:20:21.054Z,14.60
2022-11-20T07:25:24.598Z,17.05
2022-11-20T07:30:28.795Z,16.98
2022-11-20T07:35:31.394Z,16.50
2022-11-20T07:40:33.974Z,16.80
2022-11-20T07:45:36.525Z,16.95
2022-11-20T07:50:39.626Z,18.00
2022-11-20T07:55:42.144Z,17.55
2022-11-20T08:00:44.753Z,17.83
2022-11-20T08:05:47.273Z,17.80
2022-11-20T08:10:49.835Z,18.42
2022-11-20T08:15:52.469Z,17.00
2022-11-20T08:20:55.058Z,15.00
2022-11-20T08:25:57.536Z,14.07
2022-11-20T08:31:04.320Z,14.25
2022-11-20T08:36:08.392Z,14.60
2022-11-20T08:41:29.298Z,15.02
2022-11-20T08:46:37.956Z,14.38
2022-11-20T08:51:41.025Z,14.57
2022-11-20T08:56:43.556Z,14.85
2022-11-20T09:01:46.132Z,14.35
2022-11-20T09:06:52.031Z,14.60
2022-11-20T09:11:54.801Z,16.92
2022-11-20T09:16:57.825Z,17.02
2022-11-20T09:22:01.146Z,17.23
2022-11-20T09:27:05.565Z,16.42
2022-11-20T09:32:08.134Z,18.30
2022-11-20T09:37:11.160Z,17.85
2022-11-20T09:42:38.507Z,17.63
2022-11-20T09:48:00.705Z,16.90
2022-11-20T09:53:14.708Z,16.92
2022-11-20T09:58:41.247Z,16.45
2022-11-20T10:03:59.154Z,18.85
2022-11-20T10:09:15.398Z,17.95
2022-11-20T10:14:42.574Z,18.55
2022-11-20T10:20:28.061Z,17.65
2022-11-20T10:25:59.077Z,16.83
2022-11-20T10:31:05.562Z,17.40
2022-11-20T10:36:20.226Z,16.23
2022-11-20T10:41:31.926Z,14.02
2022-11-20T10:46:59.928Z,14.60
2022-11-20T10:52:26.912Z,13.80
2022-11-20T10:58:08.236Z,13.43
2022-11-20T11:03:24.406Z,11.77
2022-11-20T11:08:34.141Z,11.73
2022-11-20T11:13:36.771Z,10.57
2022-11-20T11:18:41.139Z,10.73
2022-11-20T11:23:44.480Z,11.13
2022-11-20T11:28:57.863Z,12.50
2022-11-20T11:34:17.980Z,11.68
2022-11-20T11:39:22.457Z,12.07
2022-11-20T11:45:03.310Z,13.07
2022-11-20T11:50:26.535Z,13.43
2022-11-20T11:55:44.215Z,12.23
2022-11-20T12:00:55.227Z,11.70
2022-11-20T12:06:17.447Z,13.13
2022-11-20T12:12:05.980Z,11.68
2022-11-20T12:17:12.837Z,12.15
2022-11-20T12:22:50.116Z,11.00
2022-11-20T12:28:37.965Z,11.57
2022-11-20T12:33:52.654Z,10.88
2022-11-20T12:39:03.678Z,12.30
2022-11-20T12:44:54.506Z,9.47
2022-11-20T12:50:06.193Z,10.00
2022-11-20T12:55:18.106Z,10.80
2022-11-20T13:05:39.231Z,11.65
2022-11-20T13:10:52.886Z,11.65
2022-11-20T13:16:17.136Z,11.70
2022-11-20T13:21:36.829Z,10.95
2022-11-20T13:26:40.047Z,11.25
2022-11-20T13:31:46.452Z,9.85
2022-11-20T13:36:54.349Z,10.40
2022-11-20T13:42:02.760Z,11.15
2022-11-20T13:47:21.001Z,9.73
2022-11-20T13:52:45.347Z,10.80
2022-11-20T13:57:47.743Z,10.75
2022-11-20T14:02:59.128Z,10.60
2022-11-20T14:08:06.697Z,13.50
2022-11-20T14:13:21.688Z,12.10
2022-11-20T14:18:27.010Z,13.00
2022-11-20T14:23:30.606Z,10.88
2022-11-20T14:28:33.607Z,12.07
2022-11-20T14:33:37.793Z,10.43
2022-11-20T14:38:41.720Z,10.70
2022-11-20T14:43:48.646Z,10.90
2022-11-20T14:49:01.335Z,10.07
2022-11-20T14:54:10.917Z,10.88
2022-11-20T14:59:27.483Z,11.30
2022-11-20T15:04:31.276Z,10.70
2022-11-20T15:09:34.682Z,10.90
2022-11-20T15:14:37.771Z,10.55
2022-11-20T15:19:40.329Z,10.38
2022-11-20T15:24:43.427Z,11.00
2022-11-20T15:29:46.056Z,10.77
2022-11-20T15:34:48.695Z,10.98
2022-11-20T15:39:51.470Z,11.57
2022-11-20T15:44:53.972Z,10.45
2022-11-20T15:49:56.759Z,11.75
2022-11-20T15:54:59.311Z,11.20
2022-11-20T16:00:02.030Z,11.57
2022-11-20T16:05:14.996Z,10.98
2022-11-20T16:10:17.633Z,11.77
2022-11-20T16:15:38.560Z,11.73
2022-11-20T16:20:41.128Z,11.02
2022-11-20T16:25:44.495Z,12.13
2022-11-20T16:30:47.510Z,12.90
2022-11-20T16:35:50.115Z,12.20
2022-11-20T16:40:52.668Z,11.50
2022-11-20T16:45:55.288Z,11.80
2022-11-20T16:50:57.808Z,12.07
2022-11-20T16:56:14.282Z,12.20
2022-11-20T17:01:21.578Z,13.38
2022-11-20T17:06:26.945Z,12.00
2022-11-20T17:11:29.771Z,10.93
2022-11-20T17:16:32.460Z,12.10
2022-11-20T17:21:36.526Z,11.60
2022-11-20T17:26:41.672Z,12.27
2022-11-20T17:31:45.307Z,12.27
2022-11-20T17:36:47.894Z,12.73
2022-11-20T17:42:10.396Z,13.43
2022-11-20T17:47:13.584Z,13.00
2022-11-20T17:52:17.182Z,11.70
2022-11-20T17:57:38.727Z,12.88
2022-11-20T18:02:41.248Z,12.95
2022-11-20T18:07:44.464Z,13.25
2022-11-20T18:12:46.973Z,13.65
2022-11-20T18:17:49.523Z,14.23
2022-11-20T18:22:52.090Z,14.23
2022-11-20T18:27:54.764Z,12.82
2022-11-20T18:32:57.723Z,13.10
2022-11-20T18:38:00.364Z,12.57
2022-11-20T18:43:21.990Z,13.95
2022-11-20T18:48:24.636Z,14.18
2022-11-20T18:53:27.188Z,14.23
2022-11-20T18:58:29.763Z,14.15
2022-11-20T19:03:32.453Z,13.52
2022-11-20T19:08:36.359Z,15.30
2022-11-20T19:13:39.651Z,12.45
2022-11-20T19:18:43.778Z,13.07
2022-11-20T19:23:51.664Z,13.02
2022-11-20T19:28:55.350Z,11.82
2022-11-20T19:34:02.857Z,14.02
2022-11-20T19:39:07.728Z,13.93
2022-11-20T19:44:14.007Z,13.65
2022-11-20T19:49:16.635Z,13.63
2022-11-20T19:54:19.232Z,13.73
2022-11-20T19:59:22.027Z,14.75
2022-11-20T20:04:25.111Z,13.80
2022-11-20T20:09:27.706Z,13.15
2022-11-20T20:14:31.583Z,14.40
2022-11-20T20:19:34.288Z,13.13
2022-11-20T20:24:36.817Z,13.38
2022-11-20T20:29:39.431Z,12.90
2022-11-20T20:34:42.323Z,13.23
2022-11-20T20:39:44.851Z,11.82
2022-11-20T20:45:05.826Z,12.32
2022-11-20T20:50:11.185Z,9.32
2022-11-20T20:55:13.847Z,11.88
2022-11-20T21:00:18.139Z,12.07
2022-11-20T21:05:20.730Z,12.70
2022-11-20T21:10:23.991Z,13.18
2022-11-20T21:15:27.035Z,12.02
2022-11-20T21:20:48.003Z,13.23
2022-11-20T21:25:50.515Z,11.93
2022-11-20T21:30:53.141Z,13.38
2022-11-20T21:35:58.524Z,12.48
2022-11-20T21:41:01.942Z,12.85
2022-11-20T21:46:09.915Z,13.05
2022-11-20T21:51:15.400Z,14.13
2022-11-20T21:56:20.701Z,13.85
2022-11-20T22:01:29.432Z,13.77
2022-11-20T22:06:34.105Z,13.55
2022-11-20T22:16:39.400Z,12.57
2022-11-20T22:21:42.130Z,12.70
2022-11-20T22:26:44.932Z,12.23
2022-11-20T22:31:48.068Z,13.38
2022-11-20T22:36:50.604Z,13.63
2022-11-20T22:41:53.127Z,14.80
2022-11-20T22:46:55.686Z,15.45
2022-11-20T22:51:58.231Z,15.30
2022-11-20T22:57:00.787Z,15.98
2022-11-20T23:02:03.421Z,15.55
2022-11-20T23:07:06.155Z,15.63
2022-11-20T23:12:08.695Z,16.02
2022-11-20T23:17:11.232Z,15.07
2022-11-20T23:22:13.759Z,15.95
2022-11-20T23:27:19.669Z,15.65
2022-11-20T23:32:22.603Z,15.68
2022-11-20T23:37:25.118Z,15.93
2022-11-20T23:42:27.694Z,16.08
2022-11-20T23:47:30.266Z,16.15
2022-11-20T23:52:32.862Z,16.73
2022-11-20T23:57:35.496Z,16.80
